Airfield :
LOGIN :

Register | Disclaimer

   EN    FR    IT 

 










Legend :    VFR   Marginal VFR   IFR   Intensive IFR   Very Intensive IFR
Visi :
Ceiling :
>= 8 km
>= 3000ft
5 to 8 km
1000 to 3000 ft
1500m to 5 km
500 to 1000 ft
800 to 1500m
200 to 500 ft
< 800m
< 200 ft
Symbols :   Thunderstorms  Fog  Heavy snow  Heavy precipitations  Wind > 20 kt
SIGMETs :     Misc.  Thunderstorms  Icing  Turbulence  Mountain Waves  Volcanic Ashes






- Airport Elevation : 297 ft
- IATA code : UIP


LFRQ - Quimper Pluguffan

CURRENT METAR :
  • 080330Z AUTO 24017KT 4900 -RA BR OVC004/// ///TCU 13/12 Q1011

EXPIRED METARs :
  • 080300Z AUTO 23016KT 7000 -RA OVC004/// ///TCU 12/12 Q1012
  • 080230Z AUTO 23018KT 190V250 5000 RA BR OVC004/// ///TCU 12/12 Q1012
  • 080200Z AUTO 23016KT 6000 RA OVC005/// ///TCU 12/12 Q1012
  • 080130Z AUTO 22014KT 190V250 8000 -RA OVC005/// ///TCU 12/12 Q1012
  • 080100Z AUTO 22016KT 190V250 9999 -RADZ OVC004 12/12 Q1013

TAF TAF LFRQ
Valid from the 07 at 18:00 until the 08 at 18:00 UTC


071700Z 0718/0818 22010KT 9999 SCT016 BKN025
BECMG 0721/0723 OVC006
TEMPO 0801/0804 22016G28KT 2000 RADZ OVC003
FM080500 29015G25KT 9999 BKN012
BECMG 0813/0815 27020G38KT SHRA SCT010 BKN018TCU
PROB30
TEMPO 0816/0818 28027G50KT TSRA BKN006 SCT012CB



MET'MAP, your aeronautical weather chart ! - Copyright ORBIFLY December 2007 - Disclaimer

ORBIFLY MET'MAP TEAM :

Programming & Development : Alexandra Zaïnal
Concept & original design : Baudouin d'Aumeries
Assistance for programming : Marc-Olivier Méhu
Technical & hardware support : Manuel Goepfert

Contact : metmap@orbifly.com




SOURCES & CREDITS :

   NOAA